Time;durP1;ratioP1;P1;durP2;ratioP2;P2;SDS_P1;SDS_P2;PMS_P1;PMS_P2;Temp;Humidity;BMP_temperature;BMP_pressure;BME280_temperature;BME280_humidity;BME280_pressure;Samples;Min_cycle;Max_cycle;Signal;HPM_P1;HPM_P2
2022/01/28 00:00:52;;;;;;;89.93;32.05;;;;;;;2.77;100.00;101663.91;4976221;28;20054;-72
2022/01/28 00:03:20;;;;;;;90.68;29.00;;;;;;;2.69;100.00;101665.75;4975857;28;20051;-72
2022/01/28 00:05:48;;;;;;;83.75;28.98;;;;;;;2.76;100.00;101670.34;4976033;28;20051;-72
2022/01/28 00:08:16;;;;;;;70.78;30.17;;;;;;;2.80;100.00;101655.41;4970275;28;20058;-72
2022/01/28 00:10:44;;;;;;;84.70;30.02;;;;;;;2.73;100.00;101666.19;4955316;28;20051;-72
2022/01/28 00:40:27;;;;;;;72.68;25.83;;;;;;;2.85;100.00;101654.78;4951366;28;20058;-73
2022/01/28 00:42:55;;;;;;;70.72;25.85;;;;;;;2.85;100.00;101669.16;4976594;28;20058;-70
2022/01/28 00:45:23;;;;;;;68.35;26.58;;;;;;;2.85;100.00;101663.75;4975959;28;20047;-73
2022/01/28 00:47:51;;;;;;;72.28;25.38;;;;;;;2.79;100.00;101653.75;4974351;28;20050;-73
2022/01/28 00:50:19;;;;;;;63.22;26.20;;;;;;;2.74;100.00;101643.50;4976428;28;20047;-70
2022/01/28 00:52:49;;;;;;;74.13;27.30;;;;;;;2.66;100.00;101644.53;4977182;28;20043;-73
2022/01/28 00:55:17;;;;;;;61.53;25.63;;;;;;;2.65;100.00;101637.44;4975967;28;20047;-73
2022/01/28 00:57:45;;;;;;;72.85;27.05;;;;;;;2.63;100.00;101636.81;4967128;28;20506;-71
2022/01/28 01:00:14;;;;;;;71.25;25.10;;;;;;;2.61;100.00;101641.59;4972229;28;20525;-70
2022/01/28 01:02:42;;;;;;;70.60;26.65;;;;;;;2.65;100.00;101615.81;4976125;28;20058;-73
2022/01/28 01:05:11;;;;;;;58.42;23.35;;;;;;;2.59;100.00;101622.03;4976475;28;20062;-73
2022/01/28 01:07:40;;;;;;;70.40;25.73;;;;;;;2.52;100.00;101627.41;4971604;28;20047;-73
2022/01/28 01:10:09;;;;;;;75.05;25.45;;;;;;;2.35;100.00;101616.09;4976456;28;20058;-73
2022/01/28 01:12:42;;;;;;;66.72;27.42;;;;;;;2.39;100.00;101628.16;4975948;28;20495;-70
2022/01/28 01:15:17;;;;;;;66.15;24.83;;;;;;;2.54;100.00;101630.75;4976670;28;20046;-70
2022/01/28 01:17:59;;;;;;;62.58;24.10;;;;;;;2.56;100.00;101625.16;4975606;28;20394;-73
2022/01/28 01:23:11;;;;;;;68.53;25.98;;;;;;;2.26;100.00;101628.09;4975631;28;20054;-70
2022/01/28 01:25:59;;;;;;;60.22;23.42;;;;;;;2.27;100.00;101624.34;4975956;28;20394;-70
2022/01/28 01:28:32;;;;;;;59.45;25.02;;;;;;;2.38;100.00;101626.50;4970071;28;20147;-71
2022/01/28 01:31:03;;;;;;;64.30;24.57;;;;;;;2.50;100.00;101625.94;4975531;28;20063;-70
2022/01/28 01:33:38;;;;;;;56.50;25.85;;;;;;;2.39;100.00;101628.16;4969799;28;20066;-70
2022/01/28 01:36:06;;;;;;;58.88;22.98;;;;;;;2.25;100.00;101640.75;4976046;28;20054;-73
2022/01/28 01:38:37;;;;;;;55.40;21.95;;;;;;;2.37;100.00;101641.06;4975918;28;20043;-70
2022/01/28 01:41:11;;;;;;;55.28;24.63;;;;;;;2.36;100.00;101647.50;4976619;28;20042;-73
2022/01/28 01:54:18;;;;;;;54.25;22.00;;;;;;;2.08;100.00;101629.44;4975320;28;20062;-71
2022/01/28 01:56:47;;;;;;;56.70;21.90;;;;;;;2.10;100.00;101624.66;4975782;28;20062;-72
2022/01/28 01:59:15;;;;;;;57.70;22.95;;;;;;;2.04;100.00;101613.84;4975254;28;20054;-72
2022/01/28 02:01:44;;;;;;;53.58;22.17;;;;;;;2.07;100.00;101613.44;4975963;28;20405;-73
2022/01/28 02:04:12;;;;;;;64.28;23.42;;;;;;;2.22;100.00;101605.22;4957084;28;20051;-72
2022/01/28 02:06:40;;;;;;;55.30;22.33;;;;;;;2.20;100.00;101599.19;4956942;28;20051;-72
2022/01/28 02:09:10;;;;;;;49.28;21.33;;;;;;;2.17;100.00;101603.13;4967205;28;20483;-72
2022/01/28 02:11:40;;;;;;;60.50;22.40;;;;;;;2.13;100.00;101604.53;4973797;28;20065;-72
2022/01/28 02:14:09;;;;;;;55.08;22.88;;;;;;;2.06;100.00;101584.75;4964902;28;20062;-72
2022/01/28 02:16:37;;;;;;;66.03;24.90;;;;;;;2.11;100.00;101588.53;4973265;28;20061;-72
2022/01/28 02:19:05;;;;;;;55.28;22.50;;;;;;;2.13;100.00;101580.22;4974484;28;20053;-72
2022/01/28 02:21:47;;;;;;;58.95;23.35;;;;;;;2.22;100.00;101586.31;4973299;28;20054;-73
2022/01/28 02:24:20;;;;;;;58.45;20.85;;;;;;;2.15;100.00;101589.81;4966390;28;20058;-72
2022/01/28 02:26:48;;;;;;;55.97;23.58;;;;;;;2.20;100.00;101585.69;4974325;28;20051;-72
2022/01/28 02:29:26;;;;;;;56.40;22.02;;;;;;;2.13;100.00;101578.38;4974157;28;20047;-72
2022/01/28 02:31:55;;;;;;;59.38;22.05;;;;;;;2.07;100.00;101567.53;4973555;28;20055;-72
2022/01/28 02:34:24;;;;;;;56.08;24.13;;;;;;;2.10;100.00;101567.94;4967430;28;20053;-72
2022/01/28 02:36:52;;;;;;;60.25;24.00;;;;;;;2.13;100.00;101567.56;4973656;28;20050;-72
2022/01/28 02:39:20;;;;;;;51.75;21.60;;;;;;;2.17;100.00;101564.44;4973369;28;20061;-72
2022/01/28 02:41:53;;;;;;;57.80;24.08;;;;;;;2.33;100.00;101580.34;4973903;28;20042;-72
2022/01/28 02:47:11;;;;;;;57.55;23.10;;;;;;;2.22;100.00;101545.78;4960435;28;20043;-72
2022/01/28 02:49:42;;;;;;;57.30;22.63;;;;;;;2.31;100.00;101541.91;4973505;28;20051;-72
2022/01/28 02:52:19;;;;;;;51.92;22.73;;;;;;;2.23;100.00;101531.25;4973749;28;20059;-72
2022/01/28 02:54:49;;;;;;;56.17;23.02;;;;;;;2.32;100.00;101534.59;4972720;28;20055;-72
2022/01/28 02:57:24;;;;;;;55.17;21.92;;;;;;;2.36;100.00;101522.38;4973727;28;20050;-72
2022/01/28 02:59:52;;;;;;;55.13;21.00;;;;;;;2.36;100.00;101503.47;4972793;28;20051;-72
2022/01/28 03:02:20;;;;;;;51.90;23.73;;;;;;;2.25;100.00;101511.09;4965526;28;20062;-72
2022/01/28 03:07:16;;;;;;;57.65;20.83;;;;;;;2.13;100.00;101473.06;4973763;28;20043;-72
2022/01/28 03:10:13;;;;;;;54.05;21.73;;;;;;;2.13;100.00;101475.75;4958853;28;20046;-72
2022/01/28 03:12:57;;;;;;;53.00;23.15;;;;;;;2.12;100.00;101476.78;4972083;28;20054;-72
2022/01/28 03:15:25;;;;;;;51.67;20.48;;;;;;;2.16;100.00;101482.63;4972594;28;20058;-72
2022/01/28 03:18:07;;;;;;;56.85;20.65;;;;;;;2.09;100.00;101482.56;4973378;28;20509;-72
2022/01/28 03:23:21;;;;;;;52.05;21.02;;;;;;;2.10;100.00;101459.13;4972655;28;20051;-73
2022/01/28 03:25:49;;;;;;;42.90;20.55;;;;;;;2.21;100.00;101474.75;4972589;28;20517;-72
2022/01/28 03:28:20;;;;;;;52.53;21.42;;;;;;;2.12;100.00;101460.59;4972493;28;20050;-72
2022/01/28 03:30:48;;;;;;;48.42;21.40;;;;;;;2.20;100.00;101466.84;4972303;28;20453;-72
2022/01/28 03:33:16;;;;;;;54.63;21.77;;;;;;;2.18;100.00;101458.09;4973192;28;20039;-72
2022/01/28 03:35:44;;;;;;;54.78;20.67;;;;;;;2.32;100.00;101454.41;4972736;28;20058;-72
2022/01/28 03:38:13;;;;;;;55.60;20.38;;;;;;;2.24;100.00;101444.63;4972264;28;20051;-72
2022/01/28 03:40:42;;;;;;;51.80;22.33;;;;;;;2.24;100.00;101428.41;4972404;28;20051;-72
2022/01/28 03:43:10;;;;;;;56.63;18.98;;;;;;;2.18;100.00;101444.59;4972665;28;20047;-72
2022/01/28 03:45:38;;;;;;;50.38;20.35;;;;;;;2.10;100.00;101446.44;4972372;28;20058;-72
2022/01/28 03:48:06;;;;;;;48.53;19.90;;;;;;;2.02;100.00;101449.31;4972583;28;20054;-72
2022/01/28 03:50:34;;;;;;;46.85;19.65;;;;;;;2.21;100.00;101461.25;4966444;28;20051;-72
2022/01/28 03:53:05;;;;;;;45.50;20.90;;;;;;;2.05;100.00;101446.19;4973280;28;20049;-72
2022/01/28 03:55:34;;;;;;;56.70;19.98;;;;;;;1.98;100.00;101458.84;4973069;28;20058;-72
2022/01/28 03:58:03;;;;;;;54.58;21.92;;;;;;;1.93;100.00;101445.97;4973147;28;20039;-72
2022/01/28 04:00:32;;;;;;;47.67;21.00;;;;;;;2.00;100.00;101438.72;4971767;28;20494;-72
2022/01/28 04:14:09;;;;;;;44.45;18.35;;;;;;;2.00;100.00;101451.38;4973080;28;20050;-72
2022/01/28 04:19:24;;;;;;;52.60;21.23;;;;;;;1.95;100.00;101454.69;4972170;28;20070;-72
2022/01/28 04:21:52;;;;;;;43.88;20.25;;;;;;;1.94;100.00;101452.16;4972222;28;20054;-72
2022/01/28 04:24:20;;;;;;;51.13;20.52;;;;;;;1.99;100.00;101455.94;4957783;28;20417;-72
2022/01/28 04:26:48;;;;;;;54.03;20.85;;;;;;;2.07;100.00;101449.56;4972106;28;20047;-72
2022/01/28 04:29:16;;;;;;;53.78;21.88;;;;;;;2.12;100.00;101457.88;4972226;28;20390;-72
2022/01/28 04:31:48;;;;;;;49.17;18.73;;;;;;;1.89;100.00;101466.28;4971727;28;20047;-72
2022/01/28 04:34:19;;;;;;;51.78;20.48;;;;;;;1.91;100.00;101466.09;4972109;28;20046;-72
2022/01/28 04:37:16;;;;;;;46.70;18.83;;;;;;;1.85;100.00;101462.31;4972806;28;20047;-72
2022/01/28 04:39:45;;;;;;;49.75;20.23;;;;;;;1.91;100.00;101463.38;4974296;28;20073;-72
2022/01/28 04:47:56;;;;;;;49.70;19.15;;;;;;;1.81;100.00;101482.66;4975824;28;20046;-72
2022/01/28 05:15:11;;;;;;;49.33;18.33;;;;;;;1.72;100.00;101515.16;4952491;29;20043;-72
2022/01/28 05:27:44;;;;;;;37.15;16.83;;;;;;;1.63;100.00;101534.41;4952957;29;19922;-72
2022/01/28 05:30:12;;;;;;;47.90;19.58;;;;;;;1.48;100.00;101548.84;4954490;29;20414;-72
2022/01/28 05:32:40;;;;;;;40.58;19.35;;;;;;;1.54;100.00;101528.34;4954593;29;20055;-72
2022/01/28 05:35:08;;;;;;;47.95;19.73;;;;;;;1.67;100.00;101550.00;4954209;29;20066;-72
2022/01/28 05:37:36;;;;;;;49.17;19.33;;;;;;;1.55;100.00;101547.03;4951419;29;20051;-72
2022/01/28 05:40:05;;;;;;;49.45;21.63;;;;;;;1.47;100.00;101537.22;4954211;28;20059;-73
2022/01/28 05:42:33;;;;;;;45.20;20.05;;;;;;;1.46;100.00;101548.19;4950108;29;20406;-72
2022/01/28 05:45:02;;;;;;;49.90;19.02;;;;;;;1.44;100.00;101567.28;4952331;29;20043;-72
2022/01/28 05:47:35;;;;;;;51.80;20.30;;;;;;;1.41;100.00;101553.34;4949965;29;20043;-72
2022/01/28 05:50:05;;;;;;;47.35;20.55;;;;;;;1.34;100.00;101561.38;4944568;28;20044;-72
2022/01/28 05:52:34;;;;;;;49.22;20.38;;;;;;;1.43;100.00;101541.31;4949927;29;20047;-72
2022/01/28 05:55:02;;;;;;;53.58;20.98;;;;;;;1.51;100.00;101540.34;4949538;29;20055;-72
2022/01/28 05:57:30;;;;;;;49.30;20.02;;;;;;;1.62;100.00;101552.50;4953181;29;20487;-72
2022/01/28 05:59:59;;;;;;;47.55;21.27;;;;;;;1.62;100.00;101547.09;4946030;29;20196;-72
2022/01/28 06:02:27;;;;;;;55.00;20.70;;;;;;;1.60;100.00;101547.28;4953183;28;20051;-73
2022/01/28 06:04:55;;;;;;;48.92;20.80;;;;;;;1.67;100.00;101570.78;4973682;28;20058;-73
2022/01/28 06:07:24;;;;;;;48.55;20.77;;;;;;;1.61;100.00;101558.88;4950145;28;20059;-73
2022/01/28 06:09:52;;;;;;;46.50;20.08;;;;;;;1.63;100.00;101545.22;4949241;29;20047;-72
2022/01/28 06:12:20;;;;;;;56.22;21.10;;;;;;;1.54;100.00;101566.09;4952860;29;20410;-71
2022/01/28 06:14:48;;;;;;;55.22;21.25;;;;;;;1.59;100.00;101542.91;4947357;29;20058;-73
2022/01/28 06:17:16;;;;;;;44.78;19.60;;;;;;;1.61;100.00;101556.19;4945166;29;20521;-74
2022/01/28 06:19:44;;;;;;;46.20;20.00;;;;;;;1.64;100.00;101547.72;4948566;29;20058;-74
2022/01/28 06:22:12;;;;;;;48.83;20.27;;;;;;;1.99;100.00;101555.00;4949544;29;20058;-73
2022/01/28 06:24:40;;;;;;;47.65;20.30;;;;;;;1.88;100.00;101553.69;4947348;29;20082;-73
2022/01/28 06:27:09;;;;;;;53.65;20.15;;;;;;;1.74;100.00;101550.06;4953597;29;20043;-75
2022/01/28 06:29:36;;;;;;;49.83;20.10;;;;;;;1.73;100.00;101553.81;4950780;29;20416;-74
2022/01/28 06:32:05;;;;;;;50.42;20.98;;;;;;;1.70;100.00;101555.03;4953970;28;20418;-73
2022/01/28 06:34:33;;;;;;;50.65;20.45;;;;;;;1.77;100.00;101555.09;4953361;29;20138;-73
2022/01/28 06:37:01;;;;;;;45.30;20.38;;;;;;;1.80;100.00;101564.66;4954399;29;20058;-74
2022/01/28 06:39:32;;;;;;;50.92;21.42;;;;;;;1.67;100.00;101592.38;4953720;29;20047;-73
2022/01/28 06:42:00;;;;;;;48.85;21.58;;;;;;;1.81;100.00;101599.53;4951063;29;20047;-74
2022/01/28 06:44:30;;;;;;;58.35;21.65;;;;;;;1.88;100.00;101595.03;4948079;29;20051;-74
2022/01/28 06:46:58;;;;;;;64.93;22.85;;;;;;;1.81;100.00;101615.72;4953946;28;20047;-74
2022/01/28 06:49:29;;;;;;;63.10;23.10;;;;;;;1.83;100.00;101604.75;4953507;29;20503;-74
2022/01/28 06:51:58;;;;;;;60.65;23.00;;;;;;;1.81;100.00;101614.91;4953139;29;20050;-73
2022/01/28 06:54:26;;;;;;;51.05;22.10;;;;;;;1.86;100.00;101634.88;4953264;29;20051;-74
2022/01/28 06:56:53;;;;;;;51.88;21.00;;;;;;;1.79;100.00;101612.41;4953148;29;20054;-74
2022/01/28 06:59:21;;;;;;;59.42;22.08;;;;;;;1.71;100.00;101628.75;4953157;29;20066;-74
2022/01/28 07:01:50;;;;;;;49.95;21.58;;;;;;;1.68;100.00;101656.94;4963790;28;20062;-74
2022/01/28 07:04:18;;;;;;;63.92;23.27;;;;;;;1.70;100.00;101635.13;4972420;28;20065;-74
2022/01/28 07:06:46;;;;;;;67.68;23.33;;;;;;;1.71;100.00;101648.44;4972259;28;20055;-74
2022/01/28 07:09:15;;;;;;;62.53;22.17;;;;;;;1.67;100.00;101671.44;4973072;28;20034;-74
2022/01/28 07:11:43;;;;;;;61.67;23.60;;;;;;;1.63;100.00;101648.59;4971876;28;20393;-74
2022/01/28 07:14:16;;;;;;;61.92;24.52;;;;;;;1.68;100.00;101667.75;4973015;28;20046;-74
2022/01/28 07:16:44;;;;;;;65.90;24.02;;;;;;;1.63;100.00;101682.81;4972369;28;20047;-74
2022/01/28 07:19:12;;;;;;;75.30;26.58;;;;;;;1.62;100.00;101687.41;4963662;28;20043;-74
2022/01/28 07:21:40;;;;;;;72.30;26.33;;;;;;;1.78;100.00;101704.34;4973226;28;20050;-73
2022/01/28 07:24:08;;;;;;;70.45;25.35;;;;;;;1.79;100.00;101720.38;4973010;28;20058;-74
2022/01/28 07:26:36;;;;;;;68.35;26.08;;;;;;;1.91;100.00;101722.56;4972076;28;20046;-73
2022/01/28 07:29:04;;;;;;;65.65;24.08;;;;;;;1.71;100.00;101701.59;4971814;28;20057;-73
2022/01/28 07:31:33;;;;;;;59.05;20.48;;;;;;;1.76;100.00;101706.41;4972072;28;20074;-73
2022/01/28 07:34:01;;;;;;;70.85;25.13;;;;;;;1.77;100.00;101708.09;4972254;28;20070;-74
2022/01/28 07:36:29;;;;;;;59.10;24.42;;;;;;;1.71;100.00;101715.91;4971523;28;20050;-73
2022/01/28 07:38:57;;;;;;;67.32;23.50;;;;;;;1.82;100.00;101714.59;4971801;28;20053;-73
2022/01/28 07:41:26;;;;;;;72.53;25.27;;;;;;;1.89;100.00;101725.44;4971904;28;20062;-73
2022/01/28 07:43:54;;;;;;;76.55;25.33;;;;;;;1.96;100.00;101725.50;4972222;28;20047;-73
2022/01/28 07:46:23;;;;;;;82.80;28.77;;;;;;;1.95;100.00;101734.63;4972507;28;20398;-73
2022/01/28 07:48:51;;;;;;;74.55;28.33;;;;;;;1.73;100.00;101738.19;4946096;28;20043;-73
2022/01/28 07:51:19;;;;;;;81.28;30.58;;;;;;;1.83;100.00;101726.22;4972876;28;20050;-74
2022/01/28 07:53:47;;;;;;;87.35;30.00;;;;;;;1.82;100.00;101741.59;4972539;28;20054;-73
2022/01/28 07:56:15;;;;;;;84.32;29.52;;;;;;;1.86;100.00;101763.63;4972233;28;20409;-73
2022/01/28 07:58:43;;;;;;;75.13;29.73;;;;;;;2.04;100.00;101770.44;4972228;28;20501;-73
2022/01/28 08:01:11;;;;;;;75.18;28.42;;;;;;;1.86;100.00;101769.84;4971973;28;20042;-73
2022/01/28 08:03:39;;;;;;;69.45;28.15;;;;;;;1.91;100.00;101792.75;4972211;28;20047;-73
2022/01/28 08:06:07;;;;;;;86.22;32.55;;;;;;;2.05;100.00;101788.31;4972352;28;20047;-73
2022/01/28 08:08:35;;;;;;;85.28;29.88;;;;;;;2.10;100.00;101778.59;4971694;28;20050;-73
2022/01/28 08:11:04;;;;;;;84.70;30.77;;;;;;;2.01;100.00;101771.66;4971847;28;20066;-73
2022/01/28 08:13:32;;;;;;;80.20;29.85;;;;;;;2.20;100.00;101796.34;4973355;28;20054;-73
2022/01/28 08:16:00;;;;;;;80.90;29.13;;;;;;;2.31;100.00;101784.19;4974503;28;20046;-73
2022/01/28 08:18:28;;;;;;;91.80;32.97;;;;;;;2.50;100.00;101779.97;4969200;28;20054;-73
2022/01/28 08:20:56;;;;;;;82.60;29.92;;;;;;;2.51;100.00;101800.56;4976196;28;20402;-73
2022/01/28 08:23:24;;;;;;;91.93;32.10;;;;;;;2.41;100.00;101820.63;4975088;28;20058;-73
2022/01/28 08:25:54;;;;;;;101.25;32.88;;;;;;;2.42;100.00;101816.91;4956927;28;20054;-73
2022/01/28 08:28:22;;;;;;;81.43;32.20;;;;;;;2.56;100.00;101817.03;4975199;28;20047;-73
2022/01/28 08:30:50;;;;;;;83.10;30.33;;;;;;;2.44;100.00;101841.03;4975465;28;20413;-74
2022/01/28 08:33:17;;;;;;;84.90;31.75;;;;;;;2.68;100.00;101831.69;4967041;28;20050;-73
2022/01/28 08:35:51;;;;;;;88.90;32.95;;;;;;;2.49;100.00;101826.94;4975946;28;20053;-73
2022/01/28 08:38:31;;;;;;;89.97;34.08;;;;;;;2.40;100.00;101827.06;4975967;28;20062;-72
2022/01/28 08:40:59;;;;;;;84.22;31.10;;;;;;;2.53;100.00;101845.28;4975363;28;20061;-74
2022/01/28 08:43:27;;;;;;;84.88;31.85;;;;;;;2.65;100.00;101844.75;4975117;28;20517;-73
2022/01/28 08:45:56;;;;;;;88.75;32.28;;;;;;;2.78;100.00;101852.97;4974476;28;20553;-73
2022/01/28 08:48:23;;;;;;;83.07;31.33;;;;;;;2.87;100.00;101861.75;4974836;28;20057;-73
2022/01/28 08:50:52;;;;;;;94.13;35.17;;;;;;;2.93;100.00;101860.97;4974818;28;20398;-74
2022/01/28 08:53:20;;;;;;;90.03;33.72;;;;;;;3.11;100.00;101875.88;4974369;28;20058;-74
2022/01/28 08:55:48;;;;;;;79.00;30.73;;;;;;;3.17;100.00;101882.38;4975997;28;20037;-74
2022/01/28 08:58:22;;;;;;;90.22;32.03;;;;;;;3.36;100.00;101887.06;4974996;28;20537;-74
2022/01/28 09:00:51;;;;;;;87.47;32.17;;;;;;;3.45;100.00;101886.88;4974777;28;20058;-74
2022/01/28 09:03:21;;;;;;;89.63;32.80;;;;;;;3.36;100.00;101897.03;4974568;28;20043;-74
2022/01/28 09:05:49;;;;;;;82.65;31.85;;;;;;;3.31;100.00;101894.94;4974387;28;20406;-74
2022/01/28 09:08:17;;;;;;;82.57;31.23;;;;;;;3.78;100.00;101910.59;4974715;28;20043;-73
2022/01/28 09:10:56;;;;;;;85.18;31.20;;;;;;;3.92;100.00;101900.66;4975244;28;20054;-74
2022/01/28 09:13:29;;;;;;;95.07;32.42;;;;;;;4.40;100.00;101915.19;4975515;28;20401;-74
2022/01/28 09:15:57;;;;;;;91.53;32.23;;;;;;;4.30;100.00;101907.41;4974258;28;20047;-73
2022/01/28 09:18:26;;;;;;;69.30;29.63;;;;;;;4.33;100.00;101919.72;4974603;28;20310;-74
2022/01/28 09:20:54;;;;;;;80.60;31.40;;;;;;;4.49;100.00;101930.19;4972310;28;20053;-74
2022/01/28 09:23:22;;;;;;;83.43;33.13;;;;;;;4.61;99.30;101927.72;4948951;28;20043;-74
2022/01/28 09:25:50;;;;;;;78.53;30.88;;;;;;;4.77;96.51;101926.50;4973877;28;20490;-74
2022/01/28 09:28:18;;;;;;;83.30;32.83;;;;;;;4.42;98.13;101926.66;4973653;28;20054;-73
2022/01/28 09:30:46;;;;;;;78.85;31.38;;;;;;;4.67;96.30;101935.03;4974208;28;20062;-74
2022/01/28 09:33:14;;;;;;;78.63;31.30;;;;;;;4.87;95.39;101949.63;4974221;28;20050;-73
2022/01/28 09:35:42;;;;;;;80.10;32.00;;;;;;;4.89;94.71;101953.00;4973850;28;20077;-74
2022/01/28 09:38:11;;;;;;;73.05;31.25;;;;;;;4.54;95.43;101952.09;4973777;28;20413;-74
2022/01/28 09:40:39;;;;;;;78.97;32.38;;;;;;;4.70;95.48;101958.19;4974515;28;20494;-74
2022/01/28 09:43:08;;;;;;;81.53;31.92;;;;;;;5.35;93.04;101967.59;4966893;28;20042;-74
2022/01/28 09:45:36;;;;;;;72.38;30.27;;;;;;;5.22;90.31;101968.44;4973715;28;20066;-74
2022/01/28 09:48:04;;;;;;;75.35;29.77;;;;;;;5.25;89.48;101957.16;4974140;28;20055;-74
2022/01/28 09:50:34;;;;;;;79.03;31.20;;;;;;;5.47;87.39;101970.53;4969044;28;20053;-73
2022/01/28 09:53:02;;;;;;;74.38;31.17;;;;;;;5.62;89.02;101973.81;4974655;28;20059;-73
2022/01/28 09:55:30;;;;;;;75.72;30.35;;;;;;;5.62;85.33;101962.13;4974989;28;20039;-74
2022/01/28 09:58:00;;;;;;;73.28;31.10;;;;;;;5.68;85.91;101965.88;4974627;28;20505;-74
2022/01/28 10:00:31;;;;;;;72.90;30.02;;;;;;;5.88;85.80;101977.50;4973309;28;20051;-74
2022/01/28 10:03:01;;;;;;;70.10;29.13;;;;;;;6.11;84.86;101984.34;4973267;28;20043;-76
2022/01/28 10:05:32;;;;;;;65.85;25.30;;;;;;;6.40;80.66;101984.88;4973869;28;20054;-74
2022/01/28 10:08:20;;;;;;;66.05;28.30;;;;;;;6.50;79.56;101983.56;4973597;28;20062;-73
2022/01/28 10:11:05;;;;;;;72.15;27.15;;;;;;;6.30;79.22;102000.81;4970710;28;20501;-73
2022/01/28 10:13:44;;;;;;;60.10;26.42;;;;;;;6.11;78.71;101997.13;4973057;28;20051;-74
2022/01/28 10:16:17;;;;;;;60.35;26.77;;;;;;;5.99;79.93;102005.06;4974046;28;20059;-74
2022/01/28 10:18:54;;;;;;;67.22;29.27;;;;;;;6.07;80.71;101995.88;4974239;28;20046;-74
2022/01/28 10:21:24;;;;;;;66.63;27.45;;;;;;;5.89;80.29;101983.78;4973305;28;20050;-73
2022/01/28 10:24:03;;;;;;;67.03;29.33;;;;;;;6.16;79.02;101995.44;4973428;28;20077;-73
2022/01/28 10:26:51;;;;;;;60.13;26.48;;;;;;;5.84;79.36;102003.44;4973917;28;20050;-74
2022/01/28 10:29:22;;;;;;;64.28;28.08;;;;;;;6.00;80.20;102001.31;4957849;28;20402;-73
2022/01/28 10:32:04;;;;;;;60.03;25.40;;;;;;;6.26;77.54;101999.59;4972980;28;20043;-74
2022/01/28 10:34:45;;;;;;;65.20;28.85;;;;;;;6.42;77.69;101982.78;4973710;28;20042;-74
2022/01/28 10:37:39;;;;;;;65.85;27.13;;;;;;;6.61;76.40;101974.72;4972989;28;20405;-73
2022/01/28 10:40:09;;;;;;;65.83;28.17;;;;;;;6.54;75.15;101990.22;4963024;28;20053;-74
2022/01/28 10:42:40;;;;;;;54.63;25.73;;;;;;;6.43;75.40;102017.06;4973562;28;20054;-73
2022/01/28 10:45:11;;;;;;;61.55;26.73;;;;;;;6.64;74.78;102004.19;4974855;28;20054;-73
2022/01/28 10:47:44;;;;;;;60.80;26.58;;;;;;;6.79;73.89;102003.06;4975103;28;20431;-74
2022/01/28 10:50:20;;;;;;;67.03;28.17;;;;;;;6.94;73.39;101992.69;4961271;28;20047;-74
2022/01/28 10:53:06;;;;;;;62.97;26.92;;;;;;;6.82;72.92;102002.63;4975002;28;20058;-74
2022/01/28 10:55:37;;;;;;;65.95;27.55;;;;;;;6.66;74.06;102026.59;4952132;29;20052;-73
2022/01/28 10:58:11;;;;;;;61.42;28.05;;;;;;;6.74;74.70;102011.06;4956270;29;20051;-74
2022/01/28 11:00:50;;;;;;;66.18;29.75;;;;;;;6.83;74.25;102015.16;4939222;29;20388;-73
2022/01/28 11:03:26;;;;;;;73.85;30.88;;;;;;;6.75;77.32;102020.88;4955940;29;20062;-73
2022/01/28 11:06:01;;;;;;;71.15;31.15;;;;;;;6.68;78.81;102038.06;4956430;29;20371;-73
2022/01/28 11:08:31;;;;;;;67.13;30.13;;;;;;;6.25;81.36;102042.22;4955484;29;20426;-73
2022/01/28 11:11:00;;;;;;;74.50;29.25;;;;;;;6.42;81.67;102037.16;4955839;29;20043;-73
2022/01/28 11:13:29;;;;;;;78.20;29.23;;;;;;;6.17;83.53;102023.47;4955686;29;20051;-73
2022/01/28 11:15:57;;;;;;;72.65;30.85;;;;;;;6.26;83.67;102016.72;4955049;29;20063;-73
2022/01/28 11:18:28;;;;;;;71.30;29.83;;;;;;;6.23;83.62;102010.88;4944507;29;20048;-74
2022/01/28 11:21:04;;;;;;;78.95;32.25;;;;;;;6.03;84.98;102012.59;4949847;29;20047;-75
2022/01/28 11:24:08;;;;;;;77.78;30.35;;;;;;;5.65;86.93;102018.72;4954265;29;20051;-74
2022/01/28 11:26:53;;;;;;;71.60;30.17;;;;;;;5.61;86.93;102025.63;4940235;29;20596;-74
2022/01/28 11:29:26;;;;;;;84.95;31.38;;;;;;;5.77;86.36;102027.09;4954838;29;20058;-74
2022/01/28 11:32:10;;;;;;;80.35;31.42;;;;;;;5.88;85.66;102026.41;4946673;29;20043;-74
2022/01/28 11:34:53;;;;;;;69.07;30.05;;;;;;;6.12;84.92;102010.50;4940893;29;20044;-74
2022/01/28 11:37:25;;;;;;;73.75;30.95;;;;;;;6.65;84.30;102003.13;4955272;29;20066;-74
2022/01/28 11:39:53;;;;;;;80.55;30.40;;;;;;;6.97;81.13;102000.44;4955956;29;20120;-74
2022/01/28 11:42:30;;;;;;;79.30;32.17;;;;;;;6.79;80.61;102006.63;4955172;29;20047;-74
2022/01/28 11:44:59;;;;;;;88.75;34.08;;;;;;;7.09;79.52;102002.44;4955153;29;20043;-73
2022/01/28 11:47:36;;;;;;;74.40;30.70;;;;;;;7.07;79.13;101997.22;4954922;28;20498;-74
2022/01/28 11:50:11;;;;;;;77.40;31.00;;;;;;;7.34;78.61;101985.28;4958990;29;20049;-73
2022/01/28 11:52:54;;;;;;;73.28;31.45;;;;;;;7.21;77.18;101978.88;4941831;29;20055;-75
2022/01/28 11:55:25;;;;;;;72.68;30.73;;;;;;;7.56;77.57;101982.13;4977198;28;20054;-73
2022/01/28 11:58:01;;;;;;;73.07;30.50;;;;;;;7.62;77.24;101989.41;4966964;28;20055;-73
2022/01/28 12:00:35;;;;;;;68.20;29.25;;;;;;;7.23;78.05;101987.66;4948966;28;20399;-74
2022/01/28 12:03:29;;;;;;;71.30;29.88;;;;;;;7.04;78.39;101986.75;4930093;29;20059;-74
2022/01/28 12:06:05;;;;;;;69.05;30.50;;;;;;;7.06;78.08;101972.94;4957725;28;20139;-74
2022/01/28 12:08:33;;;;;;;68.05;29.35;;;;;;;7.30;78.23;101981.31;4958658;28;20051;-74
2022/01/28 12:11:06;;;;;;;72.82;30.42;;;;;;;7.61;76.36;101974.09;4974460;28;20051;-74
2022/01/28 12:14:02;;;;;;;73.18;30.20;;;;;;;7.41;78.12;101956.06;4946625;28;20482;-74
2022/01/28 12:16:33;;;;;;;75.13;30.30;;;;;;;7.57;76.78;101957.38;4953230;28;20047;-73
2022/01/28 12:19:02;;;;;;;75.15;32.03;;;;;;;7.68;76.02;101966.72;4955135;29;20055;-74
2022/01/28 12:21:37;;;;;;;67.40;29.33;;;;;;;7.82;75.35;101961.91;4940199;29;20050;-74
2022/01/28 12:24:20;;;;;;;71.10;28.90;;;;;;;7.69;76.42;101938.41;4956830;29;20395;-74
2022/01/28 12:27:09;;;;;;;70.15;30.40;;;;;;;7.88;75.82;101941.13;4947208;29;20051;-74
2022/01/28 12:29:43;;;;;;;68.18;28.88;;;;;;;7.86;74.51;101933.16;4956076;29;20047;-74
2022/01/28 12:32:12;;;;;;;;;;;;;;;7.74;73.24;101944.00;4958346;29;20124;-74
2022/01/28 12:34:45;;;;;;;69.05;30.48;;;;;;;7.84;74.53;101923.53;4957064;28;19922;-73
2022/01/28 12:37:20;;;;;;;69.77;29.73;;;;;;;7.96;73.66;101948.97;4956205;29;20051;-74
2022/01/28 12:39:59;;;;;;;70.18;29.85;;;;;;;7.84;74.79;101920.81;4940547;29;20043;-73
2022/01/28 12:42:32;;;;;;;74.10;31.23;;;;;;;7.24;76.13;101899.47;4956523;29;20521;-73
2022/01/28 12:45:01;;;;;;;77.80;32.42;;;;;;;7.65;75.14;101931.72;4956262;29;20043;-74
2022/01/28 12:47:33;;;;;;;70.65;31.67;;;;;;;7.97;73.80;101928.81;4939432;29;20062;-74
2022/01/28 12:50:04;;;;;;;65.55;28.98;;;;;;;7.66;73.48;101901.53;4957329;29;20043;-74
2022/01/28 12:52:36;;;;;;;71.45;30.35;;;;;;;7.96;72.59;101932.63;4956945;29;20052;-74
2022/01/28 12:55:08;;;;;;;69.25;31.90;;;;;;;8.17;72.83;101919.56;4955821;29;20418;-74
2022/01/28 12:57:45;;;;;;;74.38;30.75;;;;;;;8.30;72.73;101919.38;4955546;29;20493;-75
2022/01/28 13:00:15;;;;;;;68.50;30.52;;;;;;;8.45;72.57;101913.50;4956291;28;20062;-75
2022/01/28 13:02:49;;;;;;;75.57;31.52;;;;;;;8.12;73.42;101917.53;4974367;28;20405;-75
2022/01/28 13:05:33;;;;;;;;;;;;;;;8.22;72.11;101933.34;4959270;28;20043;-74
2022/01/28 13:10:47;;;;;;;67.20;29.95;;;;;;;8.30;72.24;101908.47;4975033;28;20053;-73
2022/01/28 13:13:16;;;;;;;69.65;29.70;;;;;;;8.71;70.62;101897.81;4973972;28;20046;-75
2022/01/28 13:15:53;;;;;;;68.18;30.90;;;;;;;8.96;70.13;101882.28;4975913;28;20039;-80